createdAt,value
2019-05-21T00:00:27.164Z,22.75
2019-05-21T00:02:57.351Z,22.00
2019-05-21T00:05:27.570Z,22.02
2019-05-21T00:07:57.839Z,22.02
2019-05-21T00:10:28.078Z,22.27
2019-05-21T00:12:58.343Z,23.57
2019-05-21T00:15:28.635Z,24.18
2019-05-21T00:17:58.826Z,24.02
2019-05-21T00:20:29.051Z,24.07
2019-05-21T00:22:59.635Z,23.25
2019-05-21T00:25:30.912Z,26.02
2019-05-21T00:28:22.339Z,25.95
2019-05-21T00:34:18.436Z,26.25
2019-05-21T00:37:25.050Z,25.82
2019-05-21T00:40:32.036Z,25.65
2019-05-21T00:43:02.247Z,26.50
2019-05-21T00:45:34.071Z,26.12
2019-05-21T00:48:05.879Z,27.40
2019-05-21T00:50:36.341Z,26.42
2019-05-21T00:53:06.619Z,27.40
2019-05-21T00:55:38.088Z,27.05
2019-05-21T00:58:08.919Z,27.27
2019-05-21T01:00:39.159Z,26.62
2019-05-21T01:03:10.084Z,28.05
2019-05-21T01:05:40.302Z,27.37
2019-05-21T01:08:10.699Z,29.27
2019-05-21T01:10:42.799Z,28.60
2019-05-21T01:13:13.163Z,27.07
2019-05-21T01:15:43.387Z,27.87
2019-05-21T01:18:13.660Z,27.98
2019-05-21T01:23:14.296Z,27.82
2019-05-21T01:25:44.487Z,28.45
2019-05-21T01:28:32.025Z,29.85
2019-05-21T01:31:02.289Z,27.90
2019-05-21T01:33:32.538Z,27.22
2019-05-21T01:36:02.737Z,29.10
2019-05-21T01:38:32.995Z,28.92
2019-05-21T01:41:03.208Z,28.95
2019-05-21T01:44:00.704Z,26.87
2019-05-21T01:46:30.907Z,26.90
2019-05-21T01:49:01.124Z,26.73
2019-05-21T01:51:31.315Z,27.45
2019-05-21T01:54:01.530Z,28.65
2019-05-21T01:56:32.611Z,26.33
2019-05-21T01:59:03.346Z,27.55
2019-05-21T02:01:33.603Z,25.88
2019-05-21T02:04:04.848Z,25.88
2019-05-21T02:06:35.109Z,26.62
2019-05-21T02:09:07.059Z,26.25
2019-05-21T02:11:37.304Z,27.25
2019-05-21T02:14:45.404Z,26.00
2019-05-21T02:17:15.623Z,27.85
2019-05-21T02:19:45.979Z,25.30
2019-05-21T02:22:16.187Z,24.75
2019-05-21T02:24:47.410Z,25.60
2019-05-21T02:27:17.631Z,25.52
2019-05-21T02:30:06.601Z,26.05
2019-05-21T02:32:37.441Z,27.05
2019-05-21T02:35:09.210Z,26.25
2019-05-21T02:37:39.413Z,26.87
2019-05-21T02:40:10.897Z,27.32
2019-05-21T02:43:02.127Z,28.90
2019-05-21T02:45:32.370Z,28.05
2019-05-21T02:48:02.634Z,26.90
2019-05-21T02:50:32.998Z,27.58
2019-05-21T02:53:03.247Z,28.00
2019-05-21T02:55:33.667Z,20.10
2019-05-21T02:58:05.192Z,27.37
2019-05-21T03:00:40.056Z,29.32
2019-05-21T03:03:14.852Z,30.90
2019-05-21T03:05:45.088Z,29.25
2019-05-21T03:08:15.275Z,29.52
2019-05-21T03:10:45.510Z,29.55
2019-05-21T03:13:15.705Z,28.62
2019-05-21T03:15:45.987Z,30.70
2019-05-21T03:18:16.188Z,31.93
2019-05-21T03:20:46.411Z,30.55
2019-05-21T03:23:16.748Z,30.20
2019-05-21T03:25:47.047Z,28.98
2019-05-21T03:30:47.804Z,30.02
2019-05-21T03:33:18.001Z,29.92
2019-05-21T03:35:48.342Z,29.50
2019-05-21T03:38:18.604Z,26.73
2019-05-21T03:40:48.827Z,29.32
2019-05-21T03:43:19.019Z,27.02
2019-05-21T03:45:49.232Z,26.17
2019-05-21T03:48:20.404Z,25.60
2019-05-21T03:50:50.635Z,24.63
2019-05-21T03:53:20.828Z,25.50
2019-05-21T03:55:51.051Z,25.68
2019-05-21T03:58:21.424Z,25.25
2019-05-21T04:00:51.675Z,25.80
2019-05-21T04:03:21.996Z,25.75
2019-05-21T04:05:52.217Z,27.07
2019-05-21T04:08:22.446Z,24.82
2019-05-21T04:10:52.694Z,25.52
2019-05-21T04:13:22.879Z,25.50
2019-05-21T04:16:06.659Z,25.40
2019-05-21T04:18:50.252Z,26.23
2019-05-21T04:21:20.469Z,27.70
2019-05-21T04:23:50.767Z,28.35
2019-05-21T04:26:20.975Z,28.77
2019-05-21T04:28:51.217Z,28.87
2019-05-21T04:31:21.511Z,30.08
2019-05-21T04:33:51.915Z,28.70
2019-05-21T04:36:22.193Z,28.77
2019-05-21T04:38:52.889Z,29.77
2019-05-21T04:41:23.112Z,29.77
2019-05-21T04:43:53.385Z,28.77
2019-05-21T04:46:23.609Z,28.50
2019-05-21T04:48:53.827Z,28.27
2019-05-21T04:51:24.039Z,28.25
2019-05-21T04:53:54.257Z,28.27
2019-05-21T04:56:24.550Z,29.80
2019-05-21T04:58:54.891Z,28.32
2019-05-21T05:01:25.211Z,29.25
2019-05-21T05:03:55.490Z,29.90
2019-05-21T05:06:25.851Z,30.52
2019-05-21T05:08:58.571Z,30.67
2019-05-21T05:11:28.792Z,28.30
2019-05-21T05:13:59.036Z,28.52
2019-05-21T05:16:29.316Z,33.00
2019-05-21T05:18:59.530Z,30.30
2019-05-21T05:21:29.825Z,29.63
2019-05-21T05:24:00.279Z,28.80
2019-05-21T05:26:30.520Z,29.55
2019-05-21T05:29:00.734Z,28.47
2019-05-21T05:31:31.067Z,27.67
2019-05-21T05:34:01.310Z,25.68
2019-05-21T05:36:31.778Z,24.90
2019-05-21T05:39:02.130Z,22.03
2019-05-21T05:41:32.867Z,23.35
2019-05-21T05:44:04.491Z,21.37
2019-05-21T05:46:35.164Z,21.07
2019-05-21T05:49:07.036Z,22.47
2019-05-21T05:51:37.659Z,22.27
2019-05-21T05:54:07.978Z,22.40
2019-05-21T05:56:38.387Z,23.27
2019-05-21T05:59:13.722Z,23.07
2019-05-21T06:01:42.072Z,23.35
2019-05-21T06:04:12.322Z,23.70
2019-05-21T06:06:42.710Z,23.67
2019-05-21T06:09:12.942Z,23.90
2019-05-21T06:11:43.335Z,25.40
2019-05-21T06:14:13.589Z,23.75
2019-05-21T06:16:43.867Z,25.43
2019-05-21T06:19:14.084Z,25.72
2019-05-21T06:21:44.307Z,24.40
2019-05-21T06:24:14.628Z,23.55
2019-05-21T06:26:44.884Z,23.90
2019-05-21T06:29:15.127Z,24.00
2019-05-21T06:31:45.740Z,24.32
2019-05-21T06:34:16.276Z,24.55
2019-05-21T06:36:46.617Z,24.43
2019-05-21T06:39:16.855Z,24.35
2019-05-21T06:41:47.234Z,22.98
2019-05-21T06:44:17.448Z,23.00
2019-05-21T06:46:47.695Z,22.95
2019-05-21T06:49:17.925Z,21.40
2019-05-21T06:51:48.309Z,22.45
2019-05-21T06:54:18.625Z,24.00
2019-05-21T06:56:48.914Z,22.95
2019-05-21T06:59:19.137Z,22.48
2019-05-21T07:01:49.332Z,23.18
2019-05-21T07:04:19.693Z,24.35
2019-05-21T07:06:49.971Z,23.52
2019-05-21T07:09:20.201Z,22.73
2019-05-21T07:11:50.385Z,23.50
2019-05-21T07:14:20.595Z,23.22
2019-05-21T07:16:50.975Z,21.33
2019-05-21T07:19:21.227Z,22.10
2019-05-21T07:21:51.432Z,20.77
2019-05-21T07:24:21.815Z,19.10
2019-05-21T07:26:52.009Z,18.77
2019-05-21T07:29:22.301Z,19.55
2019-05-21T07:31:52.619Z,18.37
2019-05-21T07:34:22.852Z,18.80
2019-05-21T07:36:53.048Z,16.90
2019-05-21T07:39:23.264Z,19.20
2019-05-21T07:41:53.468Z,17.80
2019-05-21T07:44:23.762Z,18.05
2019-05-21T07:46:53.968Z,18.42
2019-05-21T07:49:24.315Z,17.95
2019-05-21T07:51:54.516Z,16.37
2019-05-21T07:54:27.920Z,18.48
2019-05-21T07:56:56.755Z,16.73
2019-05-21T07:59:27.020Z,17.40
2019-05-21T08:02:15.571Z,18.45
2019-05-21T08:04:45.831Z,17.40
2019-05-21T08:07:16.100Z,16.90
2019-05-21T08:09:46.325Z,16.85
2019-05-21T08:12:35.338Z,18.50
2019-05-21T08:14:48.522Z,18.02
2019-05-21T08:17:19.341Z,17.27
2019-05-21T08:19:49.536Z,16.82
2019-05-21T08:22:19.887Z,16.42
2019-05-21T08:24:50.092Z,15.95
2019-05-21T08:27:20.322Z,17.40
2019-05-21T08:29:50.583Z,17.20
2019-05-21T08:32:41.904Z,16.90
2019-05-21T08:35:13.371Z,15.38
2019-05-21T08:37:43.675Z,16.67
2019-05-21T08:40:13.941Z,16.90
2019-05-21T08:42:44.164Z,16.85
2019-05-21T08:45:16.045Z,17.35
2019-05-21T08:47:46.254Z,17.60
2019-05-21T08:50:16.472Z,17.00
2019-05-21T08:52:46.840Z,18.52
2019-05-21T08:55:17.091Z,17.57
2019-05-21T08:58:05.009Z,16.73
2019-05-21T09:00:20.791Z,17.40
2019-05-21T09:02:52.247Z,18.55
2019-05-21T09:05:22.444Z,19.42
2019-05-21T09:07:54.072Z,19.40
2019-05-21T09:10:24.674Z,20.02
2019-05-21T09:12:55.159Z,19.55
2019-05-21T09:15:25.426Z,18.12
2019-05-21T09:18:16.411Z,16.95
2019-05-21T09:20:46.821Z,18.65
2019-05-21T09:23:17.135Z,17.02
2019-05-21T09:25:49.535Z,17.33
2019-05-21T09:28:27.978Z,17.07
2019-05-21T09:31:02.235Z,18.35
2019-05-21T09:33:32.784Z,14.55
2019-05-21T09:36:03.087Z,17.73
2019-05-21T09:38:33.362Z,16.07
2019-05-21T09:41:07.907Z,15.00
2019-05-21T09:43:38.146Z,16.42
2019-05-21T09:46:08.338Z,15.83
2019-05-21T09:48:38.547Z,16.37
2019-05-21T09:51:08.750Z,16.12
2019-05-21T09:53:38.964Z,14.98
2019-05-21T09:56:26.992Z,14.75
2019-05-21T09:58:58.871Z,14.38
2019-05-21T10:01:31.636Z,14.13
2019-05-21T10:04:02.239Z,14.65
2019-05-21T10:06:32.629Z,14.53
2019-05-21T10:09:04.637Z,13.97
2019-05-21T10:11:35.244Z,14.47
2019-05-21T10:14:05.519Z,13.65
2019-05-21T10:16:35.753Z,13.78
2019-05-21T10:19:05.963Z,14.68
2019-05-21T10:21:36.291Z,13.65
2019-05-21T10:24:06.698Z,13.93
2019-05-21T10:26:37.070Z,13.90
2019-05-21T10:29:07.332Z,14.77
2019-05-21T10:31:37.659Z,14.80
2019-05-21T10:34:25.066Z,14.05
2019-05-21T10:36:55.351Z,14.55
2019-05-21T10:39:25.761Z,14.20
2019-05-21T10:41:56.267Z,13.30
2019-05-21T10:44:26.658Z,12.90
2019-05-21T10:46:57.050Z,13.37
2019-05-21T10:49:27.397Z,12.45
2019-05-21T10:51:57.702Z,11.33
2019-05-21T10:54:27.977Z,11.45
2019-05-21T10:56:58.199Z,11.83
2019-05-21T10:59:28.458Z,11.63
2019-05-21T11:02:06.749Z,11.85
2019-05-21T11:04:41.891Z,11.85
2019-05-21T11:07:14.442Z,11.08
2019-05-21T11:09:44.698Z,10.93
2019-05-21T11:12:15.255Z,10.40
2019-05-21T11:14:45.484Z,11.38
2019-05-21T11:17:16.874Z,10.60
2019-05-21T11:22:16.490Z,12.00
2019-05-21T11:24:46.723Z,10.32
2019-05-21T11:27:16.992Z,9.78
2019-05-21T11:29:47.230Z,10.28
2019-05-21T11:32:17.487Z,9.70
2019-05-21T11:34:50.068Z,9.30
2019-05-21T11:37:19.740Z,10.13
2019-05-21T11:39:50.079Z,9.18
2019-05-21T11:42:20.331Z,9.40
2019-05-21T11:44:50.569Z,8.90
2019-05-21T11:47:20.786Z,9.15
2019-05-21T11:49:51.061Z,9.05
2019-05-21T11:52:21.301Z,9.20
2019-05-21T11:54:51.527Z,9.00
2019-05-21T11:57:21.746Z,8.45
2019-05-21T11:59:51.947Z,9.70
2019-05-21T12:02:22.221Z,10.58
2019-05-21T12:05:50.699Z,10.43
2019-05-21T12:08:21.000Z,11.10
2019-05-21T12:10:52.197Z,11.18
2019-05-21T12:13:22.423Z,11.38
2019-05-21T12:15:52.879Z,11.70
2019-05-21T12:19:08.026Z,12.60
2019-05-21T12:21:36.706Z,12.58
2019-05-21T12:24:20.612Z,13.27
2019-05-21T12:26:50.907Z,11.78
2019-05-21T12:29:21.293Z,13.07
2019-05-21T12:31:51.602Z,12.25
2019-05-21T12:34:22.039Z,12.73
2019-05-21T12:36:52.271Z,13.32
2019-05-21T12:39:22.692Z,12.65
2019-05-21T12:41:53.098Z,12.73
2019-05-21T12:44:23.627Z,12.98
2019-05-21T12:46:53.923Z,12.77
2019-05-21T12:49:24.372Z,15.63
2019-05-21T12:51:54.623Z,13.60
2019-05-21T12:54:25.109Z,14.43
2019-05-21T12:56:55.410Z,14.73
2019-05-21T12:59:25.763Z,14.50
2019-05-21T13:01:56.007Z,14.20
2019-05-21T13:04:46.899Z,13.35
2019-05-21T13:07:17.166Z,14.83
2019-05-21T13:09:47.398Z,14.63
2019-05-21T13:12:17.751Z,13.80
2019-05-21T13:14:47.996Z,13.13
2019-05-21T13:17:18.497Z,13.32
2019-05-21T13:19:49.236Z,12.35
2019-05-21T13:22:19.451Z,12.47
2019-05-21T13:24:49.712Z,12.13
2019-05-21T13:27:19.924Z,11.83
2019-05-21T13:29:50.159Z,11.30
2019-05-21T13:32:34.121Z,11.05
2019-05-21T13:35:07.853Z,11.50
2019-05-21T13:37:38.150Z,10.93
2019-05-21T13:40:09.723Z,11.40
2019-05-21T13:42:40.020Z,11.05
2019-05-21T13:45:10.295Z,12.40
2019-05-21T13:47:40.527Z,13.30
2019-05-21T13:50:11.088Z,13.45
2019-05-21T13:52:41.406Z,13.28
2019-05-21T13:55:11.627Z,12.73
2019-05-21T13:57:41.849Z,12.10
2019-05-21T14:00:14.174Z,12.82
2019-05-21T14:02:44.644Z,11.08
2019-05-21T14:05:16.011Z,10.07
2019-05-21T14:10:20.157Z,11.12
2019-05-21T14:12:47.640Z,10.45
2019-05-21T14:15:18.133Z,9.95
2019-05-21T14:17:48.508Z,10.18
2019-05-21T14:20:18.859Z,10.85
2019-05-21T14:22:49.144Z,10.43
2019-05-21T14:25:19.482Z,10.82
2019-05-21T14:27:49.872Z,10.20
2019-05-21T14:30:20.293Z,10.45
2019-05-21T14:32:50.723Z,11.12
2019-05-21T14:35:41.144Z,11.27
2019-05-21T14:38:11.455Z,12.43
2019-05-21T14:40:41.827Z,14.27
2019-05-21T14:43:12.066Z,15.83
2019-05-21T14:45:42.464Z,15.10
2019-05-21T14:48:12.730Z,16.55
2019-05-21T14:51:02.898Z,15.68
2019-05-21T14:53:33.225Z,16.80
2019-05-21T14:56:03.521Z,17.82
2019-05-21T14:58:33.804Z,18.42
2019-05-21T15:01:04.546Z,18.87
2019-05-21T15:03:34.872Z,18.80
2019-05-21T15:06:05.095Z,18.62
2019-05-21T15:08:35.361Z,18.17
2019-05-21T15:11:05.694Z,18.17
2019-05-21T15:13:35.921Z,18.67
2019-05-21T15:16:06.355Z,17.85
2019-05-21T15:18:36.672Z,19.07
2019-05-21T15:21:56.250Z,20.70
2019-05-21T15:24:26.542Z,18.32
2019-05-21T15:26:56.820Z,17.70
2019-05-21T15:29:27.072Z,19.10
2019-05-21T15:31:57.360Z,19.25
2019-05-21T15:34:27.705Z,19.57
2019-05-21T15:37:56.596Z,19.23
2019-05-21T15:40:26.821Z,17.98
2019-05-21T15:42:57.081Z,18.17
2019-05-21T15:45:28.444Z,18.52
2019-05-21T15:50:45.339Z,17.75
2019-05-21T15:53:15.563Z,17.80
2019-05-21T15:55:45.817Z,18.40
2019-05-21T15:58:16.207Z,18.65
2019-05-21T16:00:46.500Z,18.80
2019-05-21T16:03:17.004Z,19.37
2019-05-21T16:06:01.178Z,17.93
2019-05-21T16:08:31.934Z,19.23
2019-05-21T16:13:32.244Z,21.77
2019-05-21T16:16:02.495Z,21.87
2019-05-21T16:18:32.902Z,21.23
2019-05-21T16:21:25.528Z,19.12
2019-05-21T16:23:56.006Z,18.70
2019-05-21T16:26:26.252Z,18.87
2019-05-21T16:28:56.612Z,19.92
2019-05-21T16:31:26.855Z,20.40
2019-05-21T16:33:57.141Z,20.90
2019-05-21T16:37:05.296Z,21.23
2019-05-21T16:39:35.997Z,20.05
2019-05-21T16:42:06.204Z,23.00
2019-05-21T16:44:36.468Z,21.68
2019-05-21T16:47:06.744Z,22.20
2019-05-21T16:49:36.975Z,22.93
2019-05-21T16:52:07.400Z,22.15
2019-05-21T16:54:37.656Z,22.90
2019-05-21T16:57:07.854Z,20.88
2019-05-21T16:59:38.087Z,21.00
2019-05-21T17:02:10.122Z,20.05
2019-05-21T17:04:40.335Z,20.00
2019-05-21T17:12:00.011Z,20.23
2019-05-21T17:14:26.294Z,20.15
2019-05-21T17:16:56.595Z,21.12
2019-05-21T17:19:26.803Z,20.27
2019-05-21T17:21:57.266Z,20.37
2019-05-21T17:24:27.475Z,19.93
2019-05-21T17:26:58.387Z,20.17
2019-05-21T17:29:28.823Z,21.15
2019-05-21T17:31:59.096Z,21.40
2019-05-21T17:34:29.519Z,20.95
2019-05-21T17:36:59.796Z,21.35
2019-05-21T17:39:30.096Z,20.88
2019-05-21T17:42:13.282Z,21.42
2019-05-21T17:44:32.231Z,21.10
2019-05-21T17:47:02.431Z,22.25
2019-05-21T17:49:32.827Z,20.82
2019-05-21T17:52:30.575Z,21.17
2019-05-21T17:55:00.908Z,20.97
2019-05-21T17:57:31.852Z,23.00
2019-05-21T18:00:02.229Z,22.15
2019-05-21T18:02:32.588Z,20.83
2019-05-21T18:05:03.820Z,21.93
2019-05-21T18:07:35.864Z,22.10
2019-05-21T18:10:06.792Z,21.53
2019-05-21T18:12:37.500Z,21.05
2019-05-21T18:15:10.212Z,22.00
2019-05-21T18:17:41.330Z,22.30
2019-05-21T18:20:12.222Z,21.73
2019-05-21T18:22:43.527Z,21.73
2019-05-21T18:27:43.225Z,22.05
2019-05-21T18:30:13.454Z,23.15
2019-05-21T18:32:44.009Z,23.83
2019-05-21T18:35:14.479Z,23.73
2019-05-21T18:37:44.817Z,23.17
2019-05-21T18:40:15.238Z,23.05
2019-05-21T18:42:45.431Z,24.15
2019-05-21T18:45:15.841Z,25.62
2019-05-21T18:47:46.057Z,25.30
2019-05-21T18:50:16.759Z,26.02
2019-05-21T18:52:56.170Z,25.12
2019-05-21T18:55:28.155Z,28.40
2019-05-21T18:57:58.443Z,26.87
2019-05-21T19:00:29.275Z,26.00
2019-05-21T19:03:00.004Z,26.55
2019-05-21T19:05:30.515Z,26.02
2019-05-21T19:08:07.355Z,27.65
2019-05-21T19:10:37.728Z,26.48
2019-05-21T19:13:08.955Z,28.35
2019-05-21T19:15:39.734Z,28.27
2019-05-21T19:18:10.022Z,29.02
2019-05-21T19:20:40.324Z,28.07
2019-05-21T19:23:10.572Z,30.02
2019-05-21T19:25:41.019Z,29.17
2019-05-21T19:28:11.359Z,29.77
2019-05-21T19:30:42.796Z,29.42
2019-05-21T19:33:13.103Z,29.32
2019-05-21T19:35:43.342Z,31.30
2019-05-21T19:38:13.571Z,29.27
2019-05-21T19:40:43.875Z,30.35
2019-05-21T19:43:14.098Z,31.52
2019-05-21T19:45:44.454Z,30.80
2019-05-21T19:48:15.216Z,30.57
2019-05-21T19:50:45.506Z,31.52
2019-05-21T19:53:15.802Z,32.38
2019-05-21T19:55:46.315Z,31.27
2019-05-21T19:58:16.531Z,32.42
2019-05-21T20:00:50.610Z,29.87
2019-05-21T20:03:21.388Z,30.77
2019-05-21T20:05:52.447Z,30.55
2019-05-21T20:08:24.503Z,31.37
2019-05-21T20:10:54.911Z,31.23
2019-05-21T20:13:32.732Z,29.67
2019-05-21T20:15:58.760Z,29.15
2019-05-21T20:18:28.988Z,29.02
2019-05-21T20:21:00.734Z,27.20
2019-05-21T20:23:31.170Z,29.57
2019-05-21T20:26:01.540Z,26.73
2019-05-21T20:28:31.859Z,27.75
2019-05-21T20:31:02.495Z,28.47
2019-05-21T20:33:34.677Z,28.15
2019-05-21T20:36:06.646Z,27.25
2019-05-21T20:38:37.965Z,27.05
2019-05-21T20:44:34.359Z,26.17
2019-05-21T20:47:07.129Z,27.80
2019-05-21T20:49:38.187Z,27.20
2019-05-21T20:52:18.022Z,29.20
2019-05-21T20:54:43.075Z,27.95
2019-05-21T20:57:13.773Z,29.30
2019-05-21T20:59:44.024Z,29.20
2019-05-21T21:02:14.380Z,27.52
2019-05-21T21:04:45.371Z,29.00
2019-05-21T21:07:16.490Z,27.48
2019-05-21T21:09:47.427Z,27.35
2019-05-21T21:12:18.660Z,28.65
2019-05-21T21:17:21.397Z,28.20
2019-05-21T21:19:51.723Z,30.97
2019-05-21T21:22:22.027Z,32.08
2019-05-21T21:24:52.244Z,29.55
2019-05-21T21:29:53.851Z,33.73
2019-05-21T21:32:24.189Z,34.15
2019-05-21T21:34:54.939Z,35.15
2019-05-21T21:37:25.193Z,26.00
2019-05-21T21:39:55.484Z,35.55
2019-05-21T21:42:26.105Z,35.38
2019-05-21T21:44:56.422Z,35.90
2019-05-21T21:47:27.212Z,33.42
2019-05-21T21:49:59.659Z,33.42
2019-05-21T21:52:31.385Z,32.75
2019-05-21T21:55:01.942Z,31.65
2019-05-21T21:57:32.622Z,31.45
2019-05-21T22:00:06.183Z,31.20
2019-05-21T22:02:37.127Z,28.85
2019-05-21T22:05:08.278Z,27.55
2019-05-21T22:10:09.812Z,24.57
2019-05-21T22:12:40.367Z,24.90
2019-05-21T22:15:10.703Z,25.72
2019-05-21T22:17:41.588Z,26.33
2019-05-21T22:20:11.801Z,24.02
2019-05-21T22:22:50.962Z,25.35
2019-05-21T22:25:21.307Z,23.90
2019-05-21T22:27:51.496Z,22.37
2019-05-21T22:30:22.480Z,22.82
2019-05-21T22:32:53.943Z,22.52
2019-05-21T22:35:24.171Z,20.88
2019-05-21T22:37:54.433Z,19.52
2019-05-21T22:40:25.024Z,19.98
2019-05-21T22:42:55.227Z,19.05
2019-05-21T22:45:25.447Z,19.60
2019-05-21T22:47:55.767Z,16.52
2019-05-21T22:50:26.380Z,15.63
2019-05-21T22:52:56.629Z,13.15
2019-05-21T22:55:26.955Z,15.13
2019-05-21T22:57:57.211Z,14.53
2019-05-21T23:00:27.448Z,14.15
2019-05-21T23:02:57.819Z,14.47
2019-05-21T23:05:28.048Z,13.55
